Weather at Millville Municipal Airport

Public forecast

Using degrees Fahrenheit for public forecast. Weather courtesy of forecast.io.

Current aviation weather report (METAR) for Millville Municipal Airport

Retrieved 2020/09/26 04:54 UTC (22 minutes ago):

KMIV 260454Z AUTO 04003KT 10SM SCT060 OVC120 17/15 A3010 RMK AO2 SLP192 T01670150 402220117

Aviation forecast (TAF) for Millville Municipal Airport

Retrieved 2020-09-26 00:22 UTC (5 hours ago):

TAF KMIV 252320Z 2600/2624 00000KT P6SM VCSH BKN100 TEMPO 2601/2604 -SHRA OVC020 FM260600 VRB03KT P6SM -SHRA OVC020 TEMPO 2609/2612 4SM -SHRA BR OVC008 FM261400 12005KT 5SM -SHRA BR OVC010 FM261800 15006KT P6SM VCSH BKN015 OVC040